5  °C
Temperature
5  °C
  Dewpoint
100  %
   Humidity
Temp | Dewpoint | Humidity
2  km/h
Wind Speed
1  mph
Wind Speed
1  kts
Wind Speed
340°
North North
West

Wind Speed
Partly Cloudy
Conditions
Pressure 1009.92 (hPa) - 29.82 (in)
Visibility 6.2 (mi) - 10.0 (km)

Current Conditions
EGOS
Location RAF Shawbury 6km (3.2mi)
Metar :EGOS 241315Z 34001KT 9999 FEW005 SCT015 BKN023 05/05 Q1010 WHT TEMPO BKN025 BLU
Thu 24th January 13:15 pm

Airport
  Metar Aviation API Data Provided by https://www.checkwx.com/ CSS/SVG/PHP scripts by weather34.com © 2015-2019